sensor_id;sensor_type;location;lat;lon;timestamp;P1;durP1;ratioP1;P2;durP2;ratioP2
76459;SDS011;65299;46.084;18.762;2023-02-23T00:00:25;20.60;;;11.20;;
76459;SDS011;65299;46.084;18.762;2023-02-23T00:03:27;16.98;;;11.00;;
76459;SDS011;65299;46.084;18.762;2023-02-23T00:06:28;17.17;;;8.93;;
76459;SDS011;65299;46.084;18.762;2023-02-23T00:09:29;14.52;;;8.02;;
76459;SDS011;65299;46.084;18.762;2023-02-23T00:12:34;13.35;;;6.65;;
76459;SDS011;65299;46.084;18.762;2023-02-23T00:15:34;15.00;;;6.67;;
76459;SDS011;65299;46.084;18.762;2023-02-23T00:18:35;17.20;;;8.70;;
76459;SDS011;65299;46.084;18.762;2023-02-23T00:21:44;14.82;;;8.10;;
76459;SDS011;65299;46.084;18.762;2023-02-23T00:24:45;16.98;;;8.55;;
76459;SDS011;65299;46.084;18.762;2023-02-23T00:27:47;17.13;;;7.80;;
76459;SDS011;65299;46.084;18.762;2023-02-23T00:30:48;14.43;;;7.97;;
76459;SDS011;65299;46.084;18.762;2023-02-23T00:33:48;18.13;;;8.07;;
76459;SDS011;65299;46.084;18.762;2023-02-23T00:36:53;18.40;;;8.88;;
76459;SDS011;65299;46.084;18.762;2023-02-23T00:39:54;15.25;;;7.75;;
76459;SDS011;65299;46.084;18.762;2023-02-23T00:42:55;25.50;;;9.55;;
76459;SDS011;65299;46.084;18.762;2023-02-23T00:45:57;20.33;;;9.50;;
76459;SDS011;65299;46.084;18.762;2023-02-23T00:48:57;25.42;;;10.52;;
76459;SDS011;65299;46.084;18.762;2023-02-23T00:51:58;24.80;;;10.77;;
76459;SDS011;65299;46.084;18.762;2023-02-23T00:54:59;21.65;;;10.40;;
76459;SDS011;65299;46.084;18.762;2023-02-23T00:57:59;24.93;;;10.67;;
76459;SDS011;65299;46.084;18.762;2023-02-23T01:01:00;19.88;;;9.57;;
76459;SDS011;65299;46.084;18.762;2023-02-23T01:04:00;22.63;;;10.50;;
76459;SDS011;65299;46.084;18.762;2023-02-23T01:07:01;23.25;;;11.27;;
76459;SDS011;65299;46.084;18.762;2023-02-23T01:10:05;20.13;;;10.63;;
76459;SDS011;65299;46.084;18.762;2023-02-23T01:13:19;23.70;;;12.52;;
76459;SDS011;65299;46.084;18.762;2023-02-23T01:16:20;21.13;;;10.30;;
76459;SDS011;65299;46.084;18.762;2023-02-23T01:19:27;19.17;;;9.73;;
76459;SDS011;65299;46.084;18.762;2023-02-23T01:22:27;23.90;;;9.83;;
76459;SDS011;65299;46.084;18.762;2023-02-23T01:25:28;23.15;;;11.52;;
76459;SDS011;65299;46.084;18.762;2023-02-23T01:28:28;17.97;;;9.57;;
76459;SDS011;65299;46.084;18.762;2023-02-23T01:31:29;18.63;;;10.77;;
76459;SDS011;65299;46.084;18.762;2023-02-23T01:34:30;21.07;;;10.60;;
76459;SDS011;65299;46.084;18.762;2023-02-23T01:37:33;18.90;;;9.57;;
76459;SDS011;65299;46.084;18.762;2023-02-23T01:40:34;17.37;;;9.13;;
76459;SDS011;65299;46.084;18.762;2023-02-23T01:43:57;22.95;;;11.27;;
76459;SDS011;65299;46.084;18.762;2023-02-23T01:47:08;21.77;;;11.18;;
76459;SDS011;65299;46.084;18.762;2023-02-23T01:50:08;21.03;;;10.00;;
76459;SDS011;65299;46.084;18.762;2023-02-23T01:53:10;19.83;;;10.02;;
76459;SDS011;65299;46.084;18.762;2023-02-23T01:56:14;21.88;;;9.80;;
76459;SDS011;65299;46.084;18.762;2023-02-23T01:59:20;22.30;;;10.77;;
76459;SDS011;65299;46.084;18.762;2023-02-23T02:02:21;26.08;;;12.07;;
76459;SDS011;65299;46.084;18.762;2023-02-23T02:05:26;24.83;;;10.83;;
76459;SDS011;65299;46.084;18.762;2023-02-23T02:08:29;22.50;;;10.50;;
76459;SDS011;65299;46.084;18.762;2023-02-23T02:11:31;24.95;;;10.38;;
76459;SDS011;65299;46.084;18.762;2023-02-23T02:14:37;26.05;;;11.40;;
76459;SDS011;65299;46.084;18.762;2023-02-23T02:21:13;24.40;;;10.65;;
76459;SDS011;65299;46.084;18.762;2023-02-23T02:25:04;27.98;;;12.18;;
76459;SDS011;65299;46.084;18.762;2023-02-23T02:38:21;25.30;;;11.15;;
76459;SDS011;65299;46.084;18.762;2023-02-23T02:48:05;23.65;;;11.10;;
76459;SDS011;65299;46.084;18.762;2023-02-23T02:51:19;22.67;;;11.23;;
76459;SDS011;65299;46.084;18.762;2023-02-23T02:54:29;27.77;;;12.43;;
76459;SDS011;65299;46.084;18.762;2023-02-23T02:57:37;26.05;;;11.45;;
76459;SDS011;65299;46.084;18.762;2023-02-23T03:00:40;24.13;;;11.40;;
76459;SDS011;65299;46.084;18.762;2023-02-23T03:04:19;26.80;;;11.48;;
76459;SDS011;65299;46.084;18.762;2023-02-23T03:08:07;22.60;;;11.30;;
76459;SDS011;65299;46.084;18.762;2023-02-23T03:11:44;24.98;;;12.85;;
76459;SDS011;65299;46.084;18.762;2023-02-23T03:19:25;23.30;;;10.50;;
76459;SDS011;65299;46.084;18.762;2023-02-23T03:22:54;24.63;;;10.85;;
76459;SDS011;65299;46.084;18.762;2023-02-23T03:26:26;21.38;;;10.75;;
76459;SDS011;65299;46.084;18.762;2023-02-23T03:30:05;25.48;;;11.55;;
76459;SDS011;65299;46.084;18.762;2023-02-23T03:33:40;23.13;;;10.98;;
76459;SDS011;65299;46.084;18.762;2023-02-23T03:37:15;23.80;;;11.27;;
76459;SDS011;65299;46.084;18.762;2023-02-23T03:40:40;26.00;;;11.55;;
76459;SDS011;65299;46.084;18.762;2023-02-23T03:44:02;29.02;;;12.80;;
76459;SDS011;65299;46.084;18.762;2023-02-23T03:47:27;33.20;;;12.75;;
76459;SDS011;65299;46.084;18.762;2023-02-23T03:50:52;29.40;;;12.63;;
76459;SDS011;65299;46.084;18.762;2023-02-23T03:54:17;28.60;;;11.97;;
76459;SDS011;65299;46.084;18.762;2023-02-23T03:57:42;30.90;;;12.68;;
76459;SDS011;65299;46.084;18.762;2023-02-23T04:01:06;30.45;;;13.18;;
76459;SDS011;65299;46.084;18.762;2023-02-23T04:04:28;28.05;;;13.32;;
76459;SDS011;65299;46.084;18.762;2023-02-23T04:07:48;26.95;;;11.60;;
76459;SDS011;65299;46.084;18.762;2023-02-23T04:11:14;27.33;;;11.13;;
76459;SDS011;65299;46.084;18.762;2023-02-23T04:17:56;25.48;;;12.40;;
76459;SDS011;65299;46.084;18.762;2023-02-23T04:20:57;28.48;;;13.63;;
76459;SDS011;65299;46.084;18.762;2023-02-23T04:23:58;25.30;;;11.57;;
76459;SDS011;65299;46.084;18.762;2023-02-23T04:26:58;26.13;;;11.40;;
76459;SDS011;65299;46.084;18.762;2023-02-23T04:30:00;25.07;;;11.03;;
76459;SDS011;65299;46.084;18.762;2023-02-23T04:33:02;24.92;;;11.32;;
76459;SDS011;65299;46.084;18.762;2023-02-23T04:36:04;26.13;;;12.43;;
76459;SDS011;65299;46.084;18.762;2023-02-23T04:39:04;26.77;;;11.07;;
76459;SDS011;65299;46.084;18.762;2023-02-23T04:42:05;27.17;;;12.03;;
76459;SDS011;65299;46.084;18.762;2023-02-23T04:45:05;30.73;;;13.77;;
76459;SDS011;65299;46.084;18.762;2023-02-23T04:48:07;45.67;;;19.15;;
76459;SDS011;65299;46.084;18.762;2023-02-23T04:51:07;34.13;;;16.63;;
76459;SDS011;65299;46.084;18.762;2023-02-23T04:54:08;37.55;;;18.00;;
76459;SDS011;65299;46.084;18.762;2023-02-23T04:57:08;35.87;;;15.97;;
76459;SDS011;65299;46.084;18.762;2023-02-23T05:00:09;35.38;;;15.80;;
76459;SDS011;65299;46.084;18.762;2023-02-23T05:03:10;81.57;;;30.70;;
76459;SDS011;65299;46.084;18.762;2023-02-23T05:06:11;76.77;;;33.27;;
76459;SDS011;65299;46.084;18.762;2023-02-23T05:09:11;58.05;;;25.90;;
76459;SDS011;65299;46.084;18.762;2023-02-23T05:12:12;54.40;;;25.00;;
76459;SDS011;65299;46.084;18.762;2023-02-23T05:15:13;38.80;;;17.50;;
76459;SDS011;65299;46.084;18.762;2023-02-23T05:18:13;41.73;;;19.00;;
76459;SDS011;65299;46.084;18.762;2023-02-23T05:21:14;37.03;;;15.73;;
76459;SDS011;65299;46.084;18.762;2023-02-23T05:24:15;29.92;;;15.23;;
76459;SDS011;65299;46.084;18.762;2023-02-23T05:27:17;28.30;;;14.05;;
76459;SDS011;65299;46.084;18.762;2023-02-23T05:30:17;27.27;;;13.30;;
76459;SDS011;65299;46.084;18.762;2023-02-23T05:33:17;30.30;;;13.73;;
76459;SDS011;65299;46.084;18.762;2023-02-23T05:36:19;34.22;;;15.10;;
76459;SDS011;65299;46.084;18.762;2023-02-23T05:39:21;32.97;;;15.52;;
76459;SDS011;65299;46.084;18.762;2023-02-23T05:42:21;34.65;;;15.95;;
76459;SDS011;65299;46.084;18.762;2023-02-23T05:45:22;41.30;;;17.07;;
76459;SDS011;65299;46.084;18.762;2023-02-23T05:48:22;38.92;;;16.90;;
76459;SDS011;65299;46.084;18.762;2023-02-23T05:51:23;33.43;;;17.43;;
76459;SDS011;65299;46.084;18.762;2023-02-23T05:54:24;43.03;;;20.38;;
76459;SDS011;65299;46.084;18.762;2023-02-23T05:57:24;38.80;;;18.53;;
76459;SDS011;65299;46.084;18.762;2023-02-23T06:00:25;31.20;;;15.40;;
76459;SDS011;65299;46.084;18.762;2023-02-23T06:03:25;32.28;;;14.75;;
76459;SDS011;65299;46.084;18.762;2023-02-23T06:06:26;30.67;;;13.77;;
76459;SDS011;65299;46.084;18.762;2023-02-23T06:09:27;29.13;;;12.93;;
76459;SDS011;65299;46.084;18.762;2023-02-23T06:12:27;31.30;;;15.10;;
76459;SDS011;65299;46.084;18.762;2023-02-23T06:15:28;34.08;;;15.75;;
76459;SDS011;65299;46.084;18.762;2023-02-23T06:18:28;35.70;;;15.77;;
76459;SDS011;65299;46.084;18.762;2023-02-23T06:21:29;28.98;;;14.70;;
76459;SDS011;65299;46.084;18.762;2023-02-23T06:24:30;29.77;;;14.40;;
76459;SDS011;65299;46.084;18.762;2023-02-23T06:27:30;36.03;;;16.15;;
76459;SDS011;65299;46.084;18.762;2023-02-23T06:30:31;34.53;;;17.60;;
76459;SDS011;65299;46.084;18.762;2023-02-23T06:33:31;33.57;;;16.70;;
76459;SDS011;65299;46.084;18.762;2023-02-23T06:36:32;30.87;;;16.03;;
76459;SDS011;65299;46.084;18.762;2023-02-23T06:39:32;35.57;;;16.20;;
76459;SDS011;65299;46.084;18.762;2023-02-23T06:42:32;42.30;;;19.10;;
76459;SDS011;65299;46.084;18.762;2023-02-23T06:45:35;44.50;;;18.87;;
76459;SDS011;65299;46.084;18.762;2023-02-23T06:48:36;49.05;;;18.77;;
76459;SDS011;65299;46.084;18.762;2023-02-23T06:51:37;40.10;;;18.60;;
76459;SDS011;65299;46.084;18.762;2023-02-23T06:54:37;33.37;;;13.63;;
76459;SDS011;65299;46.084;18.762;2023-02-23T06:57:39;30.67;;;11.50;;
76459;SDS011;65299;46.084;18.762;2023-02-23T07:00:40;25.30;;;10.83;;
76459;SDS011;65299;46.084;18.762;2023-02-23T07:03:42;25.25;;;9.73;;
76459;SDS011;65299;46.084;18.762;2023-02-23T07:06:43;16.67;;;7.77;;
76459;SDS011;65299;46.084;18.762;2023-02-23T07:09:43;15.80;;;7.53;;
76459;SDS011;65299;46.084;18.762;2023-02-23T07:12:43;27.73;;;11.70;;
76459;SDS011;65299;46.084;18.762;2023-02-23T07:15:44;34.50;;;16.50;;
76459;SDS011;65299;46.084;18.762;2023-02-23T07:18:44;16.00;;;8.20;;
76459;SDS011;65299;46.084;18.762;2023-02-23T07:21:45;22.33;;;8.23;;
76459;SDS011;65299;46.084;18.762;2023-02-23T07:24:45;23.67;;;10.10;;
76459;SDS011;65299;46.084;18.762;2023-02-23T07:27:46;20.70;;;8.93;;
76459;SDS011;65299;46.084;18.762;2023-02-23T07:30:47;30.17;;;15.07;;
76459;SDS011;65299;46.084;18.762;2023-02-23T07:33:48;21.52;;;9.65;;
76459;SDS011;65299;46.084;18.762;2023-02-23T07:36:49;37.87;;;13.17;;
76459;SDS011;65299;46.084;18.762;2023-02-23T07:39:49;27.87;;;13.67;;
76459;SDS011;65299;46.084;18.762;2023-02-23T07:42:50;25.95;;;12.20;;
76459;SDS011;65299;46.084;18.762;2023-02-23T07:45:50;18.23;;;8.73;;
76459;SDS011;65299;46.084;18.762;2023-02-23T07:48:51;20.23;;;10.17;;
76459;SDS011;65299;46.084;18.762;2023-02-23T07:51:51;19.70;;;10.65;;
76459;SDS011;65299;46.084;18.762;2023-02-23T07:54:52;22.33;;;10.57;;
76459;SDS011;65299;46.084;18.762;2023-02-23T07:57:53;20.50;;;10.65;;
76459;SDS011;65299;46.084;18.762;2023-02-23T08:00:53;23.40;;;10.33;;
76459;SDS011;65299;46.084;18.762;2023-02-23T08:03:54;21.90;;;9.50;;
76459;SDS011;65299;46.084;18.762;2023-02-23T08:06:54;18.60;;;9.27;;
76459;SDS011;65299;46.084;18.762;2023-02-23T08:09:54;18.67;;;7.97;;
76459;SDS011;65299;46.084;18.762;2023-02-23T08:12:56;20.57;;;8.00;;
76459;SDS011;65299;46.084;18.762;2023-02-23T08:15:57;17.58;;;8.85;;
76459;SDS011;65299;46.084;18.762;2023-02-23T08:18:58;21.58;;;8.52;;
76459;SDS011;65299;46.084;18.762;2023-02-23T08:21:59;16.85;;;7.80;;
76459;SDS011;65299;46.084;18.762;2023-02-23T08:25:00;17.07;;;7.60;;
76459;SDS011;65299;46.084;18.762;2023-02-23T08:28:04;16.83;;;7.35;;
76459;SDS011;65299;46.084;18.762;2023-02-23T08:31:08;17.13;;;8.03;;
76459;SDS011;65299;46.084;18.762;2023-02-23T08:34:09;20.17;;;7.85;;
76459;SDS011;65299;46.084;18.762;2023-02-23T08:37:10;16.83;;;7.60;;
76459;SDS011;65299;46.084;18.762;2023-02-23T08:40:11;18.83;;;7.90;;
76459;SDS011;65299;46.084;18.762;2023-02-23T08:43:14;18.65;;;9.13;;
76459;SDS011;65299;46.084;18.762;2023-02-23T08:46:14;19.77;;;7.60;;
76459;SDS011;65299;46.084;18.762;2023-02-23T08:49:17;19.33;;;8.27;;
76459;SDS011;65299;46.084;18.762;2023-02-23T08:52:18;19.00;;;8.07;;
76459;SDS011;65299;46.084;18.762;2023-02-23T08:55:18;15.73;;;7.82;;
76459;SDS011;65299;46.084;18.762;2023-02-23T08:58:20;17.80;;;7.67;;
76459;SDS011;65299;46.084;18.762;2023-02-23T09:01:22;15.73;;;7.72;;
76459;SDS011;65299;46.084;18.762;2023-02-23T09:04:22;17.77;;;7.57;;
76459;SDS011;65299;46.084;18.762;2023-02-23T09:07:23;17.65;;;8.02;;
76459;SDS011;65299;46.084;18.762;2023-02-23T09:10:24;20.73;;;9.20;;
76459;SDS011;65299;46.084;18.762;2023-02-23T09:13:27;22.70;;;10.55;;
76459;SDS011;65299;46.084;18.762;2023-02-23T09:16:28;26.83;;;11.27;;
76459;SDS011;65299;46.084;18.762;2023-02-23T09:19:28;24.30;;;10.13;;
76459;SDS011;65299;46.084;18.762;2023-02-23T09:22:29;24.77;;;12.47;;
76459;SDS011;65299;46.084;18.762;2023-02-23T09:25:30;18.58;;;10.43;;
76459;SDS011;65299;46.084;18.762;2023-02-23T09:28:32;19.42;;;10.23;;
76459;SDS011;65299;46.084;18.762;2023-02-23T09:31:33;18.13;;;9.38;;
76459;SDS011;65299;46.084;18.762;2023-02-23T09:34:33;19.73;;;9.77;;
76459;SDS011;65299;46.084;18.762;2023-02-23T09:37:33;20.13;;;8.83;;
76459;SDS011;65299;46.084;18.762;2023-02-23T09:40:36;19.03;;;8.57;;
76459;SDS011;65299;46.084;18.762;2023-02-23T09:43:47;19.17;;;8.48;;
76459;SDS011;65299;46.084;18.762;2023-02-23T09:50:21;19.20;;;9.07;;
76459;SDS011;65299;46.084;18.762;2023-02-23T09:53:40;20.08;;;8.70;;
76459;SDS011;65299;46.084;18.762;2023-02-23T09:56:47;21.63;;;11.50;;
76459;SDS011;65299;46.084;18.762;2023-02-23T09:59:47;17.52;;;9.40;;
76459;SDS011;65299;46.084;18.762;2023-02-23T10:06:01;23.08;;;9.63;;
76459;SDS011;65299;46.084;18.762;2023-02-23T10:09:41;17.33;;;8.27;;
76459;SDS011;65299;46.084;18.762;2023-02-23T10:16:26;15.35;;;7.40;;
76459;SDS011;65299;46.084;18.762;2023-02-23T10:19:51;14.93;;;7.50;;
76459;SDS011;65299;46.084;18.762;2023-02-23T10:23:01;13.43;;;7.32;;
76459;SDS011;65299;46.084;18.762;2023-02-23T10:26:04;16.38;;;6.68;;
76459;SDS011;65299;46.084;18.762;2023-02-23T10:29:18;12.73;;;6.47;;
76459;SDS011;65299;46.084;18.762;2023-02-23T10:35:39;12.63;;;6.57;;
76459;SDS011;65299;46.084;18.762;2023-02-23T10:38:39;15.65;;;6.80;;
76459;SDS011;65299;46.084;18.762;2023-02-23T10:41:40;13.53;;;6.30;;
76459;SDS011;65299;46.084;18.762;2023-02-23T10:44:42;11.10;;;5.93;;
76459;SDS011;65299;46.084;18.762;2023-02-23T10:47:44;12.45;;;5.53;;
76459;SDS011;65299;46.084;18.762;2023-02-23T10:50:46;14.70;;;5.63;;
76459;SDS011;65299;46.084;18.762;2023-02-23T10:53:48;10.43;;;5.05;;
76459;SDS011;65299;46.084;18.762;2023-02-23T10:56:49;11.87;;;5.27;;
76459;SDS011;65299;46.084;18.762;2023-02-23T11:03:31;10.38;;;5.25;;
76459;SDS011;65299;46.084;18.762;2023-02-23T11:06:36;8.20;;;4.57;;
76459;SDS011;65299;46.084;18.762;2023-02-23T13:32:35;8.05;;;4.32;;
76459;SDS011;65299;46.084;18.762;2023-02-23T13:35:38;10.73;;;3.92;;
76459;SDS011;65299;46.084;18.762;2023-02-23T13:42:31;8.32;;;4.25;;
76459;SDS011;65299;46.084;18.762;2023-02-23T13:52:43;7.17;;;3.67;;
76459;SDS011;65299;46.084;18.762;2023-02-23T13:55:48;9.27;;;4.05;;
76459;SDS011;65299;46.084;18.762;2023-02-23T13:59:02;10.05;;;4.90;;
76459;SDS011;65299;46.084;18.762;2023-02-23T14:05:29;10.50;;;5.15;;
76459;SDS011;65299;46.084;18.762;2023-02-23T14:08:33;11.33;;;5.17;;
76459;SDS011;65299;46.084;18.762;2023-02-23T14:11:49;10.05;;;4.50;;
76459;SDS011;65299;46.084;18.762;2023-02-23T14:14:52;20.38;;;5.30;;
76459;SDS011;65299;46.084;18.762;2023-02-23T14:17:56;12.50;;;4.43;;
76459;SDS011;65299;46.084;18.762;2023-02-23T14:24:21;16.02;;;5.45;;
76459;SDS011;65299;46.084;18.762;2023-02-23T14:27:42;16.45;;;5.57;;
76459;SDS011;65299;46.084;18.762;2023-02-23T14:30:44;16.23;;;6.10;;
76459;SDS011;65299;46.084;18.762;2023-02-23T14:33:53;12.85;;;6.10;;
76459;SDS011;65299;46.084;18.762;2023-02-23T14:36:57;7.95;;;4.47;;
76459;SDS011;65299;46.084;18.762;2023-02-23T14:50:07;11.65;;;6.82;;
76459;SDS011;65299;46.084;18.762;2023-02-23T14:53:17;13.48;;;6.43;;
76459;SDS011;65299;46.084;18.762;2023-02-23T14:56:21;11.98;;;5.72;;
76459;SDS011;65299;46.084;18.762;2023-02-23T14:59:25;12.32;;;5.85;;
76459;SDS011;65299;46.084;18.762;2023-02-23T15:02:37;22.30;;;8.10;;
76459;SDS011;65299;46.084;18.762;2023-02-23T15:05:41;13.45;;;6.35;;
76459;SDS011;65299;46.084;18.762;2023-02-23T15:08:47;9.90;;;5.43;;
76459;SDS011;65299;46.084;18.762;2023-02-23T15:11:48;13.70;;;6.70;;
76459;SDS011;65299;46.084;18.762;2023-02-23T15:14:58;20.08;;;9.27;;
76459;SDS011;65299;46.084;18.762;2023-02-23T15:18:01;26.33;;;9.48;;
76459;SDS011;65299;46.084;18.762;2023-02-23T15:21:07;20.60;;;9.95;;
76459;SDS011;65299;46.084;18.762;2023-02-23T15:24:14;19.30;;;9.10;;
76459;SDS011;65299;46.084;18.762;2023-02-23T15:27:22;17.02;;;7.65;;
76459;SDS011;65299;46.084;18.762;2023-02-23T15:30:29;16.00;;;7.50;;
76459;SDS011;65299;46.084;18.762;2023-02-23T15:33:31;10.63;;;6.82;;
76459;SDS011;65299;46.084;18.762;2023-02-23T15:36:33;13.60;;;7.28;;
76459;SDS011;65299;46.084;18.762;2023-02-23T15:39:35;12.13;;;7.07;;
76459;SDS011;65299;46.084;18.762;2023-02-23T15:42:42;11.65;;;6.63;;
76459;SDS011;65299;46.084;18.762;2023-02-23T15:45:48;15.35;;;7.93;;
76459;SDS011;65299;46.084;18.762;2023-02-23T15:48:51;13.93;;;6.83;;
76459;SDS011;65299;46.084;18.762;2023-02-23T15:51:58;13.18;;;7.68;;
76459;SDS011;65299;46.084;18.762;2023-02-23T15:55:03;14.98;;;6.70;;
76459;SDS011;65299;46.084;18.762;2023-02-23T15:58:12;16.60;;;8.43;;
76459;SDS011;65299;46.084;18.762;2023-02-23T16:01:21;14.65;;;7.28;;
76459;SDS011;65299;46.084;18.762;2023-02-23T16:04:33;15.00;;;7.43;;
76459;SDS011;65299;46.084;18.762;2023-02-23T16:07:41;15.32;;;7.72;;
76459;SDS011;65299;46.084;18.762;2023-02-23T16:10:43;12.82;;;7.57;;
76459;SDS011;65299;46.084;18.762;2023-02-23T16:13:46;15.85;;;8.57;;
76459;SDS011;65299;46.084;18.762;2023-02-23T16:16:51;15.00;;;7.82;;
76459;SDS011;65299;46.084;18.762;2023-02-23T16:19:53;13.77;;;7.90;;
76459;SDS011;65299;46.084;18.762;2023-02-23T16:23:26;12.80;;;7.15;;
76459;SDS011;65299;46.084;18.762;2023-02-23T16:26:30;12.75;;;6.47;;
76459;SDS011;65299;46.084;18.762;2023-02-23T16:29:56;12.75;;;6.85;;
76459;SDS011;65299;46.084;18.762;2023-02-23T16:36:13;13.93;;;7.17;;
76459;SDS011;65299;46.084;18.762;2023-02-23T16:39:15;12.63;;;6.88;;
76459;SDS011;65299;46.084;18.762;2023-02-23T16:42:36;14.98;;;7.15;;
76459;SDS011;65299;46.084;18.762;2023-02-23T16:45:38;11.73;;;7.05;;
76459;SDS011;65299;46.084;18.762;2023-02-23T16:48:41;13.15;;;7.40;;
76459;SDS011;65299;46.084;18.762;2023-02-23T16:51:41;13.67;;;7.03;;
76459;SDS011;65299;46.084;18.762;2023-02-23T16:54:42;17.03;;;9.73;;
76459;SDS011;65299;46.084;18.762;2023-02-23T16:57:46;13.20;;;7.40;;
76459;SDS011;65299;46.084;18.762;2023-02-23T17:00:51;15.32;;;8.52;;
76459;SDS011;65299;46.084;18.762;2023-02-23T17:03:52;15.60;;;7.78;;
76459;SDS011;65299;46.084;18.762;2023-02-23T17:06:53;18.33;;;9.83;;
76459;SDS011;65299;46.084;18.762;2023-02-23T17:09:56;21.08;;;8.60;;
76459;SDS011;65299;46.084;18.762;2023-02-23T17:12:58;14.95;;;7.50;;
76459;SDS011;65299;46.084;18.762;2023-02-23T17:16:04;13.55;;;7.15;;
76459;SDS011;65299;46.084;18.762;2023-02-23T17:19:05;14.73;;;7.18;;
76459;SDS011;65299;46.084;18.762;2023-02-23T17:22:06;16.67;;;7.10;;
76459;SDS011;65299;46.084;18.762;2023-02-23T17:25:06;15.47;;;6.80;;
76459;SDS011;65299;46.084;18.762;2023-02-23T17:28:07;13.10;;;5.73;;
76459;SDS011;65299;46.084;18.762;2023-02-23T17:31:07;12.75;;;6.15;;
76459;SDS011;65299;46.084;18.762;2023-02-23T17:34:08;16.50;;;6.10;;
76459;SDS011;65299;46.084;18.762;2023-02-23T17:37:08;10.77;;;5.83;;
76459;SDS011;65299;46.084;18.762;2023-02-23T17:40:11;10.63;;;5.47;;
76459;SDS011;65299;46.084;18.762;2023-02-23T17:43:15;11.50;;;5.67;;
76459;SDS011;65299;46.084;18.762;2023-02-23T17:46:16;12.73;;;6.05;;
76459;SDS011;65299;46.084;18.762;2023-02-23T17:49:16;11.03;;;6.13;;
76459;SDS011;65299;46.084;18.762;2023-02-23T17:52:16;16.02;;;6.60;;
76459;SDS011;65299;46.084;18.762;2023-02-23T17:55:19;13.80;;;6.20;;
76459;SDS011;65299;46.084;18.762;2023-02-23T17:58:20;13.70;;;7.32;;
76459;SDS011;65299;46.084;18.762;2023-02-23T18:01:21;15.20;;;7.43;;
76459;SDS011;65299;46.084;18.762;2023-02-23T18:04:21;12.87;;;6.83;;
76459;SDS011;65299;46.084;18.762;2023-02-23T18:07:21;22.67;;;9.77;;
76459;SDS011;65299;46.084;18.762;2023-02-23T18:10:22;21.30;;;9.13;;
76459;SDS011;65299;46.084;18.762;2023-02-23T18:13:24;23.67;;;10.95;;
76459;SDS011;65299;46.084;18.762;2023-02-23T18:16:25;19.17;;;10.55;;
76459;SDS011;65299;46.084;18.762;2023-02-23T18:19:26;19.42;;;9.10;;
76459;SDS011;65299;46.084;18.762;2023-02-23T18:22:27;20.00;;;9.33;;
76459;SDS011;65299;46.084;18.762;2023-02-23T18:25:27;20.97;;;10.00;;
76459;SDS011;65299;46.084;18.762;2023-02-23T18:28:28;26.10;;;11.63;;
76459;SDS011;65299;46.084;18.762;2023-02-23T18:31:29;37.03;;;14.93;;
76459;SDS011;65299;46.084;18.762;2023-02-23T18:34:30;24.37;;;11.10;;
76459;SDS011;65299;46.084;18.762;2023-02-23T18:37:31;27.67;;;11.90;;
76459;SDS011;65299;46.084;18.762;2023-02-23T18:40:32;17.07;;;7.80;;
76459;SDS011;65299;46.084;18.762;2023-02-23T18:43:33;17.17;;;8.10;;
76459;SDS011;65299;46.084;18.762;2023-02-23T18:46:34;17.10;;;7.70;;
76459;SDS011;65299;46.084;18.762;2023-02-23T18:49:35;16.65;;;8.00;;
76459;SDS011;65299;46.084;18.762;2023-02-23T18:52:36;18.07;;;9.20;;
76459;SDS011;65299;46.084;18.762;2023-02-23T18:55:37;18.17;;;8.73;;
76459;SDS011;65299;46.084;18.762;2023-02-23T18:58:38;17.63;;;8.93;;
76459;SDS011;65299;46.084;18.762;2023-02-23T19:01:38;19.67;;;9.25;;
76459;SDS011;65299;46.084;18.762;2023-02-23T19:04:41;18.27;;;9.27;;
76459;SDS011;65299;46.084;18.762;2023-02-23T19:07:42;14.80;;;8.15;;
76459;SDS011;65299;46.084;18.762;2023-02-23T19:10:43;15.93;;;8.17;;
76459;SDS011;65299;46.084;18.762;2023-02-23T19:13:43;17.38;;;8.23;;
76459;SDS011;65299;46.084;18.762;2023-02-23T19:16:43;16.40;;;8.77;;
76459;SDS011;65299;46.084;18.762;2023-02-23T19:19:45;22.27;;;8.55;;
76459;SDS011;65299;46.084;18.762;2023-02-23T19:22:46;17.30;;;8.03;;
76459;SDS011;65299;46.084;18.762;2023-02-23T19:25:47;17.10;;;8.17;;
76459;SDS011;65299;46.084;18.762;2023-02-23T19:28:48;16.92;;;8.77;;
76459;SDS011;65299;46.084;18.762;2023-02-23T19:31:48;14.90;;;8.60;;
76459;SDS011;65299;46.084;18.762;2023-02-23T19:34:49;14.93;;;8.23;;
76459;SDS011;65299;46.084;18.762;2023-02-23T19:37:50;22.60;;;8.88;;
76459;SDS011;65299;46.084;18.762;2023-02-23T19:40:51;17.65;;;9.32;;
76459;SDS011;65299;46.084;18.762;2023-02-23T19:43:52;19.73;;;9.47;;
76459;SDS011;65299;46.084;18.762;2023-02-23T19:46:53;19.07;;;9.70;;
76459;SDS011;65299;46.084;18.762;2023-02-23T19:49:53;20.35;;;9.32;;
76459;SDS011;65299;46.084;18.762;2023-02-23T19:52:53;19.37;;;10.00;;
76459;SDS011;65299;46.084;18.762;2023-02-23T19:55:58;17.17;;;9.40;;
76459;SDS011;65299;46.084;18.762;2023-02-23T19:59:03;21.90;;;9.98;;
76459;SDS011;65299;46.084;18.762;2023-02-23T20:02:04;19.65;;;9.43;;
76459;SDS011;65299;46.084;18.762;2023-02-23T20:05:05;22.03;;;9.30;;
76459;SDS011;65299;46.084;18.762;2023-02-23T20:08:05;19.77;;;9.90;;
76459;SDS011;65299;46.084;18.762;2023-02-23T20:11:06;22.40;;;13.43;;
76459;SDS011;65299;46.084;18.762;2023-02-23T20:14:07;23.13;;;14.00;;
76459;SDS011;65299;46.084;18.762;2023-02-23T20:17:07;20.00;;;10.83;;
76459;SDS011;65299;46.084;18.762;2023-02-23T20:20:08;16.67;;;8.33;;
76459;SDS011;65299;46.084;18.762;2023-02-23T20:23:10;22.58;;;9.15;;
76459;SDS011;65299;46.084;18.762;2023-02-23T20:26:15;19.57;;;9.90;;
76459;SDS011;65299;46.084;18.762;2023-02-23T20:29:21;17.02;;;8.75;;
76459;SDS011;65299;46.084;18.762;2023-02-23T20:32:21;17.27;;;8.43;;
76459;SDS011;65299;46.084;18.762;2023-02-23T20:35:22;19.20;;;8.63;;
76459;SDS011;65299;46.084;18.762;2023-02-23T20:38:25;16.57;;;8.27;;
76459;SDS011;65299;46.084;18.762;2023-02-23T20:41:25;14.63;;;8.05;;
76459;SDS011;65299;46.084;18.762;2023-02-23T20:44:27;23.83;;;10.07;;
76459;SDS011;65299;46.084;18.762;2023-02-23T20:47:29;18.27;;;8.80;;
76459;SDS011;65299;46.084;18.762;2023-02-23T20:50:29;19.57;;;8.67;;
76459;SDS011;65299;46.084;18.762;2023-02-23T20:53:32;17.98;;;9.35;;
76459;SDS011;65299;46.084;18.762;2023-02-23T20:56:33;18.73;;;9.35;;
76459;SDS011;65299;46.084;18.762;2023-02-23T20:59:34;18.40;;;9.50;;
76459;SDS011;65299;46.084;18.762;2023-02-23T21:02:35;16.42;;;8.90;;
76459;SDS011;65299;46.084;18.762;2023-02-23T21:05:42;18.13;;;7.80;;
76459;SDS011;65299;46.084;18.762;2023-02-23T21:08:42;20.10;;;7.97;;
76459;SDS011;65299;46.084;18.762;2023-02-23T21:11:45;14.43;;;7.60;;
76459;SDS011;65299;46.084;18.762;2023-02-23T21:14:47;20.07;;;8.57;;
76459;SDS011;65299;46.084;18.762;2023-02-23T21:17:47;21.42;;;8.90;;
76459;SDS011;65299;46.084;18.762;2023-02-23T21:20:49;21.13;;;9.38;;
76459;SDS011;65299;46.084;18.762;2023-02-23T21:23:49;18.73;;;9.67;;
76459;SDS011;65299;46.084;18.762;2023-02-23T21:26:50;22.60;;;9.47;;
76459;SDS011;65299;46.084;18.762;2023-02-23T21:29:51;16.45;;;8.25;;